createdAt,value
2018-09-06T00:02:23.473Z,87.20
2018-09-06T00:07:06.785Z,87.40
2018-09-06T00:11:50.126Z,88.37
2018-09-06T00:16:33.974Z,88.39
2018-09-06T00:21:18.598Z,88.40
2018-09-06T00:26:01.983Z,90.55
2018-09-06T00:30:46.416Z,88.77
2018-09-06T00:35:29.764Z,88.52
2018-09-06T00:40:13.271Z,87.53
2018-09-06T00:44:56.684Z,88.50
2018-09-06T00:49:40.056Z,87.62
2018-09-06T00:54:23.594Z,87.42
2018-09-06T00:59:10.306Z,88.24
2018-09-06T01:03:54.306Z,87.83
2018-09-06T01:08:40.049Z,87.47
2018-09-06T01:13:24.165Z,87.69
2018-09-06T01:18:08.589Z,88.49
2018-09-06T01:22:53.276Z,88.59
2018-09-06T01:27:38.456Z,89.06
2018-09-06T01:32:22.614Z,88.14
2018-09-06T01:37:09.878Z,87.08
2018-09-06T01:41:54.008Z,87.57
2018-09-06T01:46:39.445Z,87.56
2018-09-06T01:51:23.402Z,87.59
2018-09-06T01:56:07.267Z,87.86
2018-09-06T02:00:52.199Z,89.24
2018-09-06T02:05:37.920Z,89.59
2018-09-06T02:10:23.241Z,89.15
2018-09-06T02:15:06.992Z,88.30
2018-09-06T02:19:52.175Z,87.76
2018-09-06T02:24:36.592Z,86.15
2018-09-06T02:29:22.040Z,86.32
2018-09-06T02:34:06.497Z,87.11
2018-09-06T02:38:51.896Z,86.50
2018-09-06T02:43:37.094Z,86.09
2018-09-06T02:48:26.690Z,86.38
2018-09-06T02:53:10.642Z,87.41
2018-09-06T03:06:55.404Z,88.25
2018-09-06T03:11:45.638Z,88.62
2018-09-06T03:16:30.306Z,88.34
2018-09-06T03:22:46.957Z,87.49
2018-09-06T03:27:33.913Z,87.18
2018-09-06T03:32:18.084Z,86.64
2018-09-06T03:37:03.274Z,86.65
2018-09-06T03:41:47.244Z,86.30
2018-09-06T03:46:32.057Z,85.98
2018-09-06T03:51:16.786Z,86.35
2018-09-06T03:56:01.004Z,85.96
2018-09-06T04:00:46.140Z,86.91
2018-09-06T04:05:30.090Z,87.55
2018-09-06T04:10:15.001Z,87.43
2018-09-06T04:14:59.139Z,87.21
2018-09-06T04:19:44.360Z,87.24
2018-09-06T04:24:28.530Z,86.88
2018-09-06T04:29:13.682Z,88.23
2018-09-06T04:33:57.829Z,87.93
2018-09-06T04:38:41.989Z,87.73
2018-09-06T04:43:25.907Z,87.82
2018-09-06T04:48:10.598Z,87.59
2018-09-06T04:52:55.534Z,87.16
2018-09-06T04:57:41.247Z,87.18
2018-09-06T05:02:25.156Z,86.94
2018-09-06T05:07:09.290Z,87.14
2018-09-06T05:11:53.443Z,87.09
2018-09-06T05:16:39.694Z,86.57
2018-09-06T05:21:24.621Z,86.35
2018-09-06T05:26:08.498Z,86.19
2018-09-06T05:30:54.381Z,86.32
2018-09-06T05:35:38.685Z,85.16
2018-09-06T05:40:23.430Z,84.90
2018-09-06T05:45:06.694Z,84.78
2018-09-06T05:49:50.260Z,83.36
2018-09-06T05:54:33.849Z,82.47
2018-09-06T05:59:18.004Z,82.70
2018-09-06T06:04:02.738Z,82.95
2018-09-06T06:08:48.818Z,82.75
2018-09-06T06:13:33.096Z,81.95
2018-09-06T06:18:18.018Z,81.97
2018-09-06T06:23:01.510Z,83.36
2018-09-06T06:27:48.673Z,81.27
2018-09-06T06:32:32.942Z,80.36
2018-09-06T06:37:19.417Z,80.17
2018-09-06T06:42:02.823Z,79.71
2018-09-06T06:46:50.149Z,80.56
2018-09-06T06:51:33.449Z,80.10
2018-09-06T06:56:17.158Z,79.67
2018-09-06T07:01:00.628Z,78.76
2018-09-06T07:05:44.048Z,77.38
2018-09-06T07:10:29.600Z,76.39
2018-09-06T07:15:13.506Z,74.89
2018-09-06T07:20:01.235Z,74.39
2018-09-06T07:24:45.978Z,73.60
2018-09-06T07:29:30.417Z,73.50
2018-09-06T07:34:15.619Z,71.88
2018-09-06T07:38:59.289Z,69.71
2018-09-06T07:43:42.786Z,70.31
2018-09-06T07:48:26.278Z,69.89
2018-09-06T07:53:10.121Z,70.45
2018-09-06T07:57:55.045Z,68.37
2018-09-06T08:02:38.747Z,68.99
2018-09-06T08:07:23.225Z,68.77
2018-09-06T08:12:07.101Z,67.72
2018-09-06T08:16:51.656Z,67.86
2018-09-06T08:21:35.160Z,68.18
2018-09-06T08:26:22.017Z,66.50
2018-09-06T08:31:06.121Z,65.52
2018-09-06T08:35:49.503Z,68.31
2018-09-06T08:40:32.930Z,66.74
2018-09-06T08:45:16.439Z,66.17
2018-09-06T08:50:00.961Z,67.57
2018-09-06T08:54:44.413Z,65.78
2018-09-06T08:59:28.848Z,66.19
2018-09-06T09:04:12.298Z,65.69
2018-09-06T09:08:56.001Z,65.28
2018-09-06T09:34:17.869Z,60.76
2018-09-06T09:39:01.543Z,61.59
2018-09-06T09:43:45.033Z,57.21
2018-09-06T09:48:28.740Z,58.48
2018-09-06T09:53:12.370Z,57.31
2018-09-06T09:57:59.056Z,59.39
2018-09-06T10:02:47.857Z,63.88
2018-09-06T10:07:36.709Z,66.19
2018-09-06T10:12:20.243Z,66.77
2018-09-06T10:17:04.997Z,68.31
2018-09-06T10:21:49.683Z,69.66
2018-09-06T10:26:34.817Z,68.37
2018-09-06T10:31:20.895Z,66.62
2018-09-06T10:36:06.351Z,66.13
2018-09-06T10:40:50.528Z,63.04
2018-09-06T10:45:36.174Z,61.64
2018-09-06T10:50:22.358Z,62.34
2018-09-06T10:55:06.337Z,60.33
2018-09-06T10:59:51.951Z,60.73
2018-09-06T11:04:37.755Z,60.02
2018-09-06T11:09:26.502Z,57.75
2018-09-06T11:19:02.857Z,56.80
2018-09-06T11:28:47.220Z,55.45
2018-09-06T11:33:36.407Z,56.29
2018-09-06T11:43:15.863Z,53.90
2018-09-06T11:48:05.031Z,54.48
2018-09-06T11:52:50.166Z,54.51
2018-09-06T11:57:45.182Z,54.33
2018-09-06T12:02:31.826Z,56.08
2018-09-06T12:07:19.912Z,56.71
2018-09-06T12:12:06.494Z,57.78
2018-09-06T12:16:55.997Z,56.90
2018-09-06T12:21:48.907Z,62.35
2018-09-06T12:26:34.965Z,70.27
2018-09-06T12:31:22.016Z,75.40
2018-09-06T12:36:14.813Z,77.05
2018-09-06T12:41:10.241Z,78.08
2018-09-06T12:45:57.835Z,77.74
2018-09-06T12:50:43.925Z,80.33
2018-09-06T12:55:34.345Z,80.61
2018-09-06T13:00:20.393Z,82.43
2018-09-06T13:05:09.607Z,81.11
2018-09-06T13:09:55.441Z,79.07
2018-09-06T13:14:45.361Z,78.51
2018-09-06T13:19:32.195Z,78.11
2018-09-06T13:24:18.442Z,77.96
2018-09-06T13:29:04.471Z,76.73
2018-09-06T13:33:55.241Z,73.72
2018-09-06T13:38:44.381Z,73.59
2018-09-06T13:43:30.420Z,71.63
2018-09-06T13:48:17.250Z,72.97
2018-09-06T13:53:03.302Z,73.17
2018-09-06T13:57:50.378Z,74.08
2018-09-06T14:02:36.209Z,73.91
2018-09-06T14:07:24.405Z,72.20
2018-09-06T14:12:10.518Z,71.17
2018-09-06T14:16:56.672Z,71.14
2018-09-06T14:21:43.564Z,69.31
2018-09-06T14:26:33.430Z,67.90
2018-09-06T14:31:18.147Z,60.79
2018-09-06T14:36:04.177Z,57.78
2018-09-06T14:40:50.434Z,58.08
2018-09-06T14:45:38.689Z,62.20
2018-09-06T14:50:24.613Z,68.51
2018-09-06T14:55:14.214Z,73.35
2018-09-06T14:59:58.063Z,74.57
2018-09-06T15:04:45.266Z,74.15
2018-09-06T15:09:29.652Z,74.27
2018-09-06T15:14:20.660Z,74.89
2018-09-06T15:19:04.263Z,74.29
2018-09-06T15:23:50.492Z,71.51
2018-09-06T15:28:36.969Z,71.92
2018-09-06T15:33:22.214Z,72.49
2018-09-06T15:38:06.724Z,70.21
2018-09-06T15:42:55.023Z,71.53
2018-09-06T15:47:40.055Z,70.18
2018-09-06T15:52:25.193Z,71.16
2018-09-06T15:57:09.117Z,71.12
2018-09-06T16:01:55.350Z,71.24
2018-09-06T16:06:40.033Z,71.44
2018-09-06T16:11:25.892Z,71.72
2018-09-06T16:16:10.811Z,72.92
2018-09-06T16:20:56.686Z,73.14
2018-09-06T16:25:47.134Z,72.75
2018-09-06T16:30:33.745Z,73.84
2018-09-06T16:35:23.741Z,74.29
2018-09-06T16:40:09.957Z,75.23
2018-09-06T16:44:56.854Z,75.19
2018-09-06T16:49:49.018Z,75.47
2018-09-06T16:54:36.430Z,75.67
2018-09-06T16:59:20.961Z,76.76
2018-09-06T17:04:06.427Z,76.25
2018-09-06T17:08:50.994Z,75.34
2018-09-06T17:13:43.349Z,75.45
2018-09-06T17:18:29.959Z,75.27
2018-09-06T17:23:13.578Z,75.54
2018-09-06T17:27:57.332Z,75.75
2018-09-06T17:37:57.130Z,76.32
2018-09-06T17:42:41.197Z,74.93
2018-09-06T17:47:24.853Z,75.48
2018-09-06T17:52:29.139Z,76.20
2018-09-06T17:57:17.804Z,75.56
2018-09-06T18:02:01.397Z,75.65
2018-09-06T18:06:44.981Z,75.15
2018-09-06T18:11:29.555Z,75.12
2018-09-06T18:16:13.127Z,75.31
2018-09-06T18:20:56.646Z,74.80
2018-09-06T18:25:41.858Z,74.87
2018-09-06T18:30:31.265Z,75.25
2018-09-06T18:35:17.986Z,75.88
2018-09-06T18:40:01.655Z,75.00
2018-09-06T18:44:46.505Z,75.20
2018-09-06T18:49:30.002Z,75.01
2018-09-06T18:54:16.394Z,75.25
2018-09-06T18:59:00.200Z,74.39
2018-09-06T19:03:43.826Z,73.16
2018-09-06T19:08:27.256Z,72.44
2018-09-06T19:13:10.756Z,71.83
2018-09-06T19:17:54.771Z,71.46
2018-09-06T19:22:38.109Z,72.19
2018-09-06T19:27:22.145Z,72.26
2018-09-06T19:32:06.270Z,72.10
2018-09-06T19:36:50.649Z,71.60
2018-09-06T19:41:34.154Z,72.11
2018-09-06T19:46:17.728Z,73.50
2018-09-06T19:51:01.404Z,73.14
2018-09-06T19:55:45.218Z,73.32
2018-09-06T20:00:28.642Z,73.37
2018-09-06T20:05:16.767Z,73.87
2018-09-06T20:10:00.299Z,73.92
2018-09-06T20:14:44.767Z,73.95
2018-09-06T20:19:28.200Z,73.57
2018-09-06T20:24:12.639Z,73.49
2018-09-06T20:28:57.110Z,73.18
2018-09-06T20:33:40.723Z,72.25
2018-09-06T20:38:24.132Z,72.36
2018-09-06T20:43:07.586Z,72.78
2018-09-06T20:47:51.123Z,72.56
2018-09-06T20:52:35.053Z,72.48
2018-09-06T20:57:18.670Z,72.49
2018-09-06T21:02:07.441Z,72.71
2018-09-06T21:06:51.018Z,73.53
2018-09-06T21:11:34.455Z,74.00
2018-09-06T21:16:18.078Z,73.23
2018-09-06T21:21:01.463Z,74.51
2018-09-06T21:25:48.687Z,73.89
2018-09-06T21:30:32.030Z,73.30
2018-09-06T21:35:16.510Z,74.16
2018-09-06T21:40:00.020Z,75.22
2018-09-06T21:44:46.490Z,74.12
2018-09-06T21:49:29.937Z,75.25
2018-09-06T21:54:16.598Z,75.38
2018-09-06T21:58:59.917Z,75.29
2018-09-06T22:03:48.807Z,75.28
2018-09-06T22:08:32.257Z,75.55
2018-09-06T22:13:16.752Z,75.76
2018-09-06T22:18:00.249Z,75.60
2018-09-06T22:22:43.526Z,75.55
2018-09-06T22:27:26.999Z,75.58
2018-09-06T22:32:10.243Z,76.32
2018-09-06T22:36:53.701Z,76.33
2018-09-06T22:41:36.989Z,76.18
2018-09-06T22:46:20.465Z,76.44
2018-09-06T22:51:03.942Z,76.63
2018-09-06T22:55:47.622Z,76.69
2018-09-06T23:00:31.895Z,76.91
2018-09-06T23:05:18.140Z,77.21
2018-09-06T23:10:10.890Z,77.33
2018-09-06T23:15:05.408Z,77.09
2018-09-06T23:19:57.434Z,77.70
2018-09-06T23:24:50.691Z,76.93
2018-09-06T23:29:37.878Z,77.09
2018-09-06T23:34:25.670Z,77.17
2018-09-06T23:39:16.490Z,76.86
2018-09-06T23:44:08.321Z,77.04
2018-09-06T23:48:54.041Z,77.30
2018-09-06T23:53:47.853Z,76.74
2018-09-06T23:58:42.060Z,77.56
